createdAt,value
2023-03-09T00:01:32.346Z,100.00
2023-03-09T00:04:01.002Z,100.00
2023-03-09T00:06:28.433Z,100.00
2023-03-09T00:08:55.649Z,100.00
2023-03-09T00:11:22.566Z,100.00
2023-03-09T00:13:50.803Z,100.00
2023-03-09T00:16:25.025Z,100.00
2023-03-09T00:18:53.466Z,100.00
2023-03-09T00:21:41.901Z,100.00
2023-03-09T00:24:17.420Z,100.00
2023-03-09T00:26:50.927Z,100.00
2023-03-09T00:29:18.318Z,100.00
2023-03-09T00:31:45.887Z,100.00
2023-03-09T00:34:14.954Z,100.00
2023-03-09T00:36:41.914Z,100.00
2023-03-09T00:39:09.138Z,100.00
2023-03-09T00:41:36.077Z,100.00
2023-03-09T00:44:04.485Z,100.00
2023-03-09T00:46:32.728Z,100.00
2023-03-09T00:48:59.688Z,100.00
2023-03-09T00:51:27.460Z,100.00
2023-03-09T00:53:56.786Z,100.00
2023-03-09T00:56:27.135Z,100.00
2023-03-09T00:58:55.273Z,100.00
2023-03-09T01:01:22.167Z,100.00
2023-03-09T01:03:49.778Z,100.00
2023-03-09T01:06:17.466Z,100.00
2023-03-09T01:08:46.542Z,100.00
2023-03-09T01:11:15.951Z,100.00
2023-03-09T01:13:43.522Z,100.00
2023-03-09T01:16:10.534Z,100.00
2023-03-09T01:18:37.584Z,100.00
2023-03-09T01:21:04.930Z,100.00
2023-03-09T01:23:31.877Z,100.00
2023-03-09T01:25:58.893Z,100.00
2023-03-09T01:28:25.844Z,100.00
2023-03-09T01:30:52.752Z,100.00
2023-03-09T01:33:19.630Z,100.00
2023-03-09T01:35:46.566Z,100.00
2023-03-09T01:38:13.780Z,100.00
2023-03-09T01:40:40.718Z,100.00
2023-03-09T01:43:36.132Z,100.00
2023-03-09T01:46:21.443Z,100.00
2023-03-09T01:49:37.584Z,100.00
2023-03-09T01:52:15.351Z,100.00
2023-03-09T01:54:50.691Z,100.00
2023-03-09T01:57:55.256Z,100.00
2023-03-09T02:00:25.755Z,100.00
2023-03-09T02:03:00.104Z,100.00
2023-03-09T02:05:44.325Z,100.00
2023-03-09T02:08:12.907Z,100.00
2023-03-09T02:10:47.144Z,100.00
2023-03-09T02:13:19.510Z,100.00
2023-03-09T02:15:46.542Z,100.00
2023-03-09T02:18:13.888Z,100.00
2023-03-09T02:20:46.490Z,100.00
2023-03-09T02:23:31.411Z,100.00
2023-03-09T02:26:34.312Z,100.00
2023-03-09T02:29:02.285Z,100.00
2023-03-09T02:31:29.374Z,100.00
2023-03-09T02:33:56.253Z,100.00
2023-03-09T02:36:24.921Z,100.00
2023-03-09T02:38:51.784Z,100.00
2023-03-09T02:41:20.679Z,100.00
2023-03-09T02:43:53.985Z,100.00
2023-03-09T02:46:21.022Z,100.00
2023-03-09T02:48:48.072Z,100.00
2023-03-09T02:51:14.915Z,100.00
2023-03-09T02:53:42.000Z,100.00
2023-03-09T02:56:09.301Z,100.00
2023-03-09T02:58:36.236Z,100.00
2023-03-09T03:01:03.179Z,100.00
2023-03-09T03:03:30.098Z,100.00
2023-03-09T03:05:58.458Z,100.00
2023-03-09T03:08:36.086Z,100.00
2023-03-09T03:11:04.690Z,100.00
2023-03-09T03:13:31.510Z,100.00
2023-03-09T03:16:03.260Z,100.00
2023-03-09T03:18:30.816Z,100.00
2023-03-09T03:20:57.674Z,100.00
2023-03-09T03:23:24.971Z,100.00
2023-03-09T03:25:51.913Z,100.00
2023-03-09T03:28:18.869Z,100.00
2023-03-09T03:30:52.430Z,100.00
2023-03-09T03:33:19.391Z,100.00
2023-03-09T03:35:46.972Z,100.00
2023-03-09T03:38:13.827Z,100.00
2023-03-09T03:40:40.749Z,100.00
2023-03-09T03:43:07.798Z,100.00
2023-03-09T03:45:34.677Z,100.00
2023-03-09T03:48:01.576Z,100.00
2023-03-09T03:50:28.417Z,100.00
2023-03-09T03:52:55.300Z,100.00
2023-03-09T03:55:22.136Z,100.00
2023-03-09T03:57:49.106Z,100.00
2023-03-09T04:00:19.125Z,100.00
2023-03-09T04:02:46.326Z,100.00
2023-03-09T04:05:13.321Z,100.00
2023-03-09T04:07:40.132Z,100.00
2023-03-09T04:10:08.254Z,100.00
2023-03-09T04:12:35.415Z,100.00
2023-03-09T04:15:02.193Z,100.00
2023-03-09T04:17:29.099Z,100.00
2023-03-09T04:19:55.925Z,100.00
2023-03-09T04:22:23.518Z,100.00
2023-03-09T04:24:50.552Z,100.00
2023-03-09T04:27:17.571Z,100.00
2023-03-09T04:29:44.480Z,100.00
2023-03-09T04:32:11.368Z,100.00
2023-03-09T04:34:38.227Z,100.00
2023-03-09T04:37:05.113Z,100.00
2023-03-09T04:39:31.912Z,100.00
2023-03-09T04:41:58.735Z,100.00
2023-03-09T04:44:25.559Z,100.00
2023-03-09T04:46:52.354Z,100.00
2023-03-09T04:49:19.242Z,100.00
2023-03-09T04:51:46.110Z,100.00
2023-03-09T04:54:12.932Z,100.00
2023-03-09T04:56:39.737Z,100.00
2023-03-09T04:59:06.574Z,100.00
2023-03-09T05:01:33.589Z,100.00
2023-03-09T05:04:00.446Z,100.00
2023-03-09T05:06:27.239Z,100.00
2023-03-09T05:08:54.086Z,100.00
2023-03-09T05:11:20.889Z,100.00
2023-03-09T05:13:48.519Z,100.00
2023-03-09T05:16:16.344Z,100.00
2023-03-09T05:18:44.551Z,100.00
2023-03-09T05:21:13.116Z,100.00
2023-03-09T05:23:39.957Z,100.00
2023-03-09T05:26:08.613Z,100.00
2023-03-09T05:28:39.395Z,100.00
2023-03-09T05:31:14.756Z,100.00
2023-03-09T05:33:41.700Z,100.00
2023-03-09T05:36:23.135Z,100.00
2023-03-09T05:38:51.519Z,100.00
2023-03-09T05:41:20.546Z,100.00
2023-03-09T05:43:47.569Z,100.00
2023-03-09T05:46:17.305Z,100.00
2023-03-09T05:48:47.516Z,100.00
2023-03-09T05:51:14.683Z,100.00
2023-03-09T05:53:41.975Z,100.00
2023-03-09T05:56:12.130Z,100.00
2023-03-09T05:58:39.357Z,100.00
2023-03-09T06:01:16.965Z,100.00
2023-03-09T06:03:43.802Z,100.00
2023-03-09T06:06:10.871Z,100.00
2023-03-09T06:08:37.716Z,100.00
2023-03-09T06:11:04.642Z,100.00
2023-03-09T06:13:31.472Z,100.00
2023-03-09T06:15:58.404Z,100.00
2023-03-09T06:18:27.126Z,100.00
2023-03-09T06:20:53.956Z,100.00
2023-03-09T06:23:20.755Z,100.00
2023-03-09T06:25:48.245Z,100.00
2023-03-09T06:28:15.142Z,100.00
2023-03-09T06:30:41.983Z,100.00
2023-03-09T06:33:08.923Z,100.00
2023-03-09T06:35:36.557Z,100.00
2023-03-09T06:38:04.148Z,100.00
2023-03-09T06:40:31.276Z,100.00
2023-03-09T06:42:58.422Z,100.00
2023-03-09T06:45:25.944Z,100.00
2023-03-09T06:47:57.698Z,100.00
2023-03-09T06:50:27.741Z,100.00
2023-03-09T06:52:54.649Z,100.00
2023-03-09T06:55:22.142Z,100.00
2023-03-09T06:57:49.355Z,100.00
2023-03-09T07:00:17.121Z,100.00
2023-03-09T07:02:44.397Z,100.00
2023-03-09T07:05:11.510Z,100.00
2023-03-09T07:07:38.425Z,100.00
2023-03-09T07:10:06.485Z,100.00
2023-03-09T07:12:33.407Z,100.00
2023-03-09T07:15:00.295Z,100.00
2023-03-09T07:17:27.713Z,100.00
2023-03-09T07:19:54.630Z,100.00
2023-03-09T07:22:21.958Z,100.00
2023-03-09T07:24:48.891Z,100.00
2023-03-09T07:27:16.042Z,100.00
2023-03-09T07:29:42.943Z,100.00
2023-03-09T07:32:10.270Z,100.00
2023-03-09T07:34:37.432Z,100.00
2023-03-09T07:37:04.890Z,100.00
2023-03-09T07:39:32.004Z,100.00
2023-03-09T07:41:58.835Z,100.00
2023-03-09T07:44:25.689Z,100.00
2023-03-09T07:46:52.581Z,100.00
2023-03-09T07:49:19.645Z,100.00
2023-03-09T07:51:46.625Z,100.00
2023-03-09T07:54:13.786Z,100.00
2023-03-09T07:56:40.602Z,100.00
2023-03-09T07:59:07.825Z,100.00
2023-03-09T08:01:34.701Z,100.00
2023-03-09T08:04:01.600Z,100.00
2023-03-09T08:06:28.717Z,100.00
2023-03-09T08:08:55.898Z,100.00
2023-03-09T08:11:24.011Z,100.00
2023-03-09T08:14:02.340Z,100.00
2023-03-09T08:16:31.131Z,100.00
2023-03-09T08:18:58.797Z,100.00
2023-03-09T08:21:26.407Z,100.00
2023-03-09T08:23:53.579Z,100.00
2023-03-09T08:26:25.348Z,100.00
2023-03-09T08:28:53.266Z,100.00
2023-03-09T08:31:20.258Z,100.00
2023-03-09T08:33:47.433Z,100.00
2023-03-09T08:36:18.271Z,100.00
2023-03-09T08:38:47.233Z,100.00
2023-03-09T08:41:14.651Z,100.00
2023-03-09T08:43:41.484Z,100.00
2023-03-09T08:46:09.104Z,100.00
2023-03-09T08:48:36.198Z,100.00
2023-03-09T08:51:07.063Z,100.00
2023-03-09T08:53:34.860Z,100.00
2023-03-09T08:56:10.465Z,100.00
2023-03-09T08:58:37.661Z,100.00
2023-03-09T09:01:09.387Z,100.00
2023-03-09T09:03:37.256Z,100.00
2023-03-09T09:06:09.654Z,100.00
2023-03-09T09:08:36.869Z,100.00
2023-03-09T09:11:15.609Z,100.00
2023-03-09T09:13:43.027Z,100.00
2023-03-09T09:16:11.863Z,100.00
2023-03-09T09:18:41.389Z,100.00
2023-03-09T09:21:11.732Z,100.00
2023-03-09T09:23:41.183Z,100.00
2023-03-09T09:26:09.345Z,100.00
2023-03-09T09:28:36.161Z,100.00
2023-03-09T09:31:05.211Z,100.00
2023-03-09T09:33:34.403Z,100.00
2023-03-09T09:36:10.103Z,100.00
2023-03-09T09:38:36.966Z,100.00
2023-03-09T09:41:11.273Z,100.00
2023-03-09T09:43:39.602Z,100.00
2023-03-09T09:46:15.616Z,100.00
2023-03-09T09:48:44.859Z,100.00
2023-03-09T09:51:41.845Z,100.00
2023-03-09T09:54:33.097Z,100.00
2023-03-09T09:57:11.167Z,100.00
2023-03-09T09:59:54.723Z,100.00
2023-03-09T10:02:53.533Z,100.00
2023-03-09T10:05:40.992Z,100.00
2023-03-09T10:08:42.754Z,100.00
2023-03-09T10:11:34.142Z,100.00
2023-03-09T10:14:24.340Z,100.00
2023-03-09T10:17:08.165Z,100.00
2023-03-09T10:19:41.758Z,100.00
2023-03-09T10:22:15.257Z,100.00
2023-03-09T10:24:51.547Z,100.00
2023-03-09T10:27:58.978Z,100.00
2023-03-09T10:30:48.476Z,100.00
2023-03-09T10:33:43.812Z,100.00
2023-03-09T10:36:31.125Z,100.00
2023-03-09T10:39:15.775Z,100.00
2023-03-09T10:41:43.244Z,100.00
2023-03-09T10:44:16.869Z,100.00
2023-03-09T10:47:03.016Z,100.00
2023-03-09T10:49:30.926Z,100.00
2023-03-09T10:52:05.336Z,100.00
2023-03-09T10:54:41.256Z,100.00
2023-03-09T10:57:32.338Z,100.00
2023-03-09T11:00:14.868Z,100.00
2023-03-09T11:02:54.990Z,100.00
2023-03-09T11:05:24.848Z,100.00
2023-03-09T11:07:58.626Z,100.00
2023-03-09T11:10:29.215Z,100.00
2023-03-09T11:12:58.622Z,100.00
2023-03-09T11:15:33.266Z,95.10
2023-03-09T11:18:02.766Z,92.60
2023-03-09T11:20:35.077Z,93.67
2023-03-09T11:23:34.179Z,94.74
2023-03-09T11:26:12.270Z,89.30
2023-03-09T11:29:15.798Z,90.42
2023-03-09T11:31:44.333Z,90.48
2023-03-09T11:34:33.077Z,86.53
2023-03-09T11:37:14.628Z,85.27
2023-03-09T11:40:22.738Z,84.23
2023-03-09T11:43:00.052Z,83.78
2023-03-09T11:45:31.201Z,83.89
2023-03-09T11:48:00.962Z,82.71
2023-03-09T11:50:35.697Z,81.62
2023-03-09T11:53:15.586Z,81.75
2023-03-09T11:55:48.061Z,83.51
2023-03-09T11:58:23.880Z,83.54
2023-03-09T12:00:58.287Z,82.38
2023-03-09T12:03:28.579Z,79.79
2023-03-09T12:06:01.514Z,77.86
2023-03-09T12:08:42.934Z,76.38
2023-03-09T12:11:39.033Z,76.31
2023-03-09T12:14:36.574Z,77.22
2023-03-09T12:17:16.062Z,75.22
2023-03-09T12:19:49.928Z,76.61
2023-03-09T12:22:34.818Z,77.38
2023-03-09T12:25:17.769Z,77.86
2023-03-09T12:27:54.991Z,78.42
2023-03-09T12:30:31.520Z,79.13
2023-03-09T12:33:01.980Z,79.60
2023-03-09T12:35:28.738Z,78.98
2023-03-09T12:38:15.477Z,77.91
2023-03-09T12:40:43.057Z,75.73
2023-03-09T12:43:15.933Z,76.85
2023-03-09T12:45:45.975Z,76.12
2023-03-09T12:48:25.718Z,76.66
2023-03-09T12:51:03.232Z,77.04
2023-03-09T12:53:35.217Z,75.83
2023-03-09T12:56:15.793Z,75.73
2023-03-09T12:58:48.840Z,74.39
2023-03-09T13:01:18.525Z,74.75
2023-03-09T13:03:49.618Z,74.85
2023-03-09T13:06:46.975Z,77.56
2023-03-09T13:09:18.737Z,76.68
2023-03-09T13:11:57.726Z,77.69
2023-03-09T13:14:27.363Z,77.42
2023-03-09T13:17:05.151Z,78.98
2023-03-09T13:19:50.567Z,78.16
2023-03-09T13:22:21.866Z,77.34
2023-03-09T13:24:56.578Z,78.67
2023-03-09T13:27:30.665Z,79.47
2023-03-09T13:30:25.539Z,80.09
2023-03-09T13:33:01.208Z,81.75
2023-03-09T13:35:40.036Z,81.91
2023-03-09T13:38:18.144Z,83.10
2023-03-09T13:40:52.885Z,82.73
2023-03-09T13:43:25.181Z,79.75
2023-03-09T13:46:07.386Z,79.64
2023-03-09T13:48:43.113Z,79.05
2023-03-09T13:51:28.504Z,78.69
2023-03-09T13:53:55.348Z,77.61
2023-03-09T13:56:22.180Z,78.10
2023-03-09T13:58:50.438Z,78.03
2023-03-09T14:01:25.593Z,79.46
2023-03-09T14:03:56.678Z,80.42
2023-03-09T14:09:34.130Z,79.29
2023-03-09T14:12:02.227Z,81.33
2023-03-09T14:14:29.639Z,84.01
2023-03-09T14:16:57.139Z,82.01
2023-03-09T14:19:33.211Z,83.27
2023-03-09T14:22:01.169Z,84.13
2023-03-09T14:24:36.240Z,82.88
2023-03-09T14:27:35.113Z,81.42
2023-03-09T14:30:44.926Z,82.15
2023-03-09T14:33:30.165Z,79.95
2023-03-09T14:36:29.343Z,80.41
2023-03-09T14:39:01.419Z,79.23
2023-03-09T14:41:31.180Z,78.79
2023-03-09T14:43:58.785Z,79.10
2023-03-09T14:46:29.066Z,78.65
2023-03-09T14:49:00.096Z,80.14
2023-03-09T14:51:30.512Z,80.93
2023-03-09T14:54:09.095Z,81.95
2023-03-09T14:56:36.377Z,82.50
2023-03-09T14:59:13.676Z,80.47
2023-03-09T15:01:58.260Z,79.22
2023-03-09T15:04:25.462Z,78.90
2023-03-09T15:06:52.801Z,78.79
2023-03-09T15:09:20.564Z,79.19
2023-03-09T15:11:48.356Z,78.21
2023-03-09T15:14:29.691Z,79.47
2023-03-09T15:16:57.914Z,78.46
2023-03-09T15:19:25.708Z,78.64
2023-03-09T15:22:00.107Z,78.07
2023-03-09T15:24:29.205Z,77.61
2023-03-09T15:26:58.821Z,77.25
2023-03-09T15:29:26.031Z,77.88
2023-03-09T15:31:53.033Z,78.06
2023-03-09T15:34:19.930Z,78.16
2023-03-09T15:36:46.775Z,78.19
2023-03-09T15:39:13.773Z,77.19
2023-03-09T15:41:40.629Z,78.17
2023-03-09T15:44:07.565Z,78.62
2023-03-09T15:46:34.475Z,77.47
2023-03-09T15:49:08.430Z,77.33
2023-03-09T15:51:36.659Z,77.36
2023-03-09T15:54:05.090Z,76.44
2023-03-09T15:56:32.556Z,76.74
2023-03-09T15:58:59.654Z,78.01
2023-03-09T16:01:28.137Z,78.60
2023-03-09T16:03:55.179Z,79.32
2023-03-09T16:06:23.681Z,79.90
2023-03-09T16:08:51.835Z,78.54
2023-03-09T16:11:20.343Z,79.42
2023-03-09T16:13:47.639Z,78.82
2023-03-09T16:16:16.028Z,78.59
2023-03-09T16:18:43.521Z,79.14
2023-03-09T16:21:10.669Z,76.12
2023-03-09T16:23:37.729Z,76.40
2023-03-09T16:26:04.678Z,76.40
2023-03-09T16:28:31.636Z,74.77
2023-03-09T16:30:58.883Z,74.23
2023-03-09T16:33:25.834Z,75.39
2023-03-09T16:36:00.726Z,77.12
2023-03-09T16:38:28.219Z,76.33
2023-03-09T16:40:55.137Z,76.42
2023-03-09T16:43:22.187Z,76.83
2023-03-09T16:45:57.246Z,76.26
2023-03-09T16:48:26.434Z,76.79
2023-03-09T16:50:59.004Z,76.60
2023-03-09T16:53:27.869Z,76.73
2023-03-09T16:56:01.340Z,78.04
2023-03-09T16:58:29.309Z,78.00
2023-03-09T17:00:56.702Z,77.46
2023-03-09T17:03:23.700Z,78.85
2023-03-09T17:05:51.273Z,79.22
2023-03-09T17:08:18.671Z,77.99
2023-03-09T17:10:48.635Z,78.08
2023-03-09T17:13:15.896Z,79.55
2023-03-09T17:15:43.399Z,79.90
2023-03-09T17:18:10.436Z,80.80
2023-03-09T17:20:37.532Z,80.75
2023-03-09T17:23:04.416Z,81.20
2023-03-09T17:25:31.560Z,80.64
2023-03-09T17:27:59.564Z,82.66
2023-03-09T17:30:39.585Z,83.12
2023-03-09T17:33:11.964Z,83.22
2023-03-09T17:35:40.272Z,82.86
2023-03-09T17:38:11.514Z,83.79
2023-03-09T17:40:47.092Z,83.46
2023-03-09T17:43:14.749Z,83.98
2023-03-09T17:45:42.690Z,84.68
2023-03-09T17:48:10.139Z,86.20
2023-03-09T17:50:37.361Z,87.27
2023-03-09T17:53:04.962Z,87.13
2023-03-09T17:55:32.404Z,86.81
2023-03-09T17:57:59.284Z,86.54
2023-03-09T18:00:26.364Z,87.04
2023-03-09T18:02:53.272Z,88.03
2023-03-09T18:05:20.226Z,88.58
2023-03-09T18:07:47.398Z,89.52
2023-03-09T18:10:14.734Z,89.29
2023-03-09T18:12:42.545Z,89.37
2023-03-09T18:15:10.470Z,89.14
2023-03-09T18:17:37.324Z,89.26
2023-03-09T18:20:05.259Z,89.92
2023-03-09T18:22:32.175Z,89.86
2023-03-09T18:24:59.571Z,90.84
2023-03-09T18:27:26.490Z,90.90
2023-03-09T18:29:53.392Z,90.92
2023-03-09T18:32:21.016Z,91.68
2023-03-09T18:34:48.070Z,92.68
2023-03-09T18:37:15.711Z,93.61
2023-03-09T18:39:42.854Z,93.43
2023-03-09T18:42:10.071Z,93.63
2023-03-09T18:44:36.946Z,93.66
2023-03-09T18:47:05.384Z,93.20
2023-03-09T18:49:32.483Z,93.51
2023-03-09T18:51:59.603Z,94.66
2023-03-09T18:54:26.830Z,94.84
2023-03-09T18:56:53.766Z,94.64
2023-03-09T18:59:20.698Z,94.92
2023-03-09T19:01:47.754Z,94.49
2023-03-09T19:04:15.750Z,94.50
2023-03-09T19:06:42.702Z,94.74
2023-03-09T19:09:09.628Z,94.74
2023-03-09T19:11:39.012Z,94.97
2023-03-09T19:14:06.114Z,94.96
2023-03-09T19:16:33.462Z,94.91
2023-03-09T19:19:00.315Z,95.66
2023-03-09T19:21:28.709Z,94.77
2023-03-09T19:23:57.714Z,95.77
2023-03-09T19:26:25.524Z,95.67
2023-03-09T19:28:52.787Z,96.02
2023-03-09T19:31:25.257Z,95.92
2023-03-09T19:33:52.378Z,96.32
2023-03-09T19:36:25.600Z,96.49
2023-03-09T19:38:54.432Z,96.13
2023-03-09T19:41:27.123Z,96.36
2023-03-09T19:43:55.525Z,97.30
2023-03-09T19:46:28.585Z,97.24
2023-03-09T19:48:56.775Z,98.23
2023-03-09T19:51:27.785Z,97.85
2023-03-09T19:53:58.296Z,98.57
2023-03-09T19:56:32.390Z,98.83
2023-03-09T19:59:01.080Z,98.69
2023-03-09T20:01:30.217Z,99.20
2023-03-09T20:04:00.935Z,100.00
2023-03-09T20:06:28.031Z,100.00
2023-03-09T20:08:59.013Z,100.00
2023-03-09T20:11:26.113Z,100.00
2023-03-09T20:13:56.587Z,100.00
2023-03-09T20:16:27.131Z,100.00
2023-03-09T20:18:57.998Z,100.00
2023-03-09T20:21:25.893Z,100.00
2023-03-09T20:23:52.781Z,100.00
2023-03-09T20:26:28.013Z,100.00
2023-03-09T20:28:56.253Z,100.00
2023-03-09T20:31:33.324Z,100.00
2023-03-09T20:34:02.877Z,100.00
2023-03-09T20:36:32.789Z,100.00
2023-03-09T20:39:00.544Z,100.00
2023-03-09T20:41:29.017Z,100.00
2023-03-09T20:43:57.546Z,100.00
2023-03-09T20:46:25.266Z,100.00
2023-03-09T20:48:54.545Z,100.00
2023-03-09T20:51:23.192Z,100.00
2023-03-09T20:53:50.519Z,100.00
2023-03-09T20:56:21.437Z,100.00
2023-03-09T20:58:48.705Z,100.00
2023-03-09T21:01:19.918Z,100.00
2023-03-09T21:03:46.960Z,100.00
2023-03-09T21:06:14.730Z,100.00
2023-03-09T21:08:42.158Z,100.00
2023-03-09T21:11:12.191Z,100.00
2023-03-09T21:13:41.059Z,100.00
2023-03-09T21:16:16.476Z,100.00
2023-03-09T21:18:43.500Z,100.00
2023-03-09T21:21:10.386Z,100.00
2023-03-09T21:23:37.766Z,100.00
2023-03-09T21:26:14.754Z,100.00
2023-03-09T21:28:42.406Z,100.00
2023-03-09T21:31:21.412Z,100.00
2023-03-09T21:33:48.302Z,100.00
2023-03-09T21:36:16.552Z,100.00
2023-03-09T21:38:45.031Z,100.00
2023-03-09T21:41:13.002Z,100.00
2023-03-09T21:43:39.970Z,100.00
2023-03-09T21:46:07.805Z,100.00
2023-03-09T21:48:43.654Z,100.00
2023-03-09T21:51:13.866Z,98.30
2023-03-09T21:53:41.188Z,96.73
2023-03-09T21:56:09.003Z,97.00
2023-03-09T21:58:35.930Z,90.61
2023-03-09T22:01:17.109Z,87.52
2023-03-09T22:03:44.891Z,88.59
2023-03-09T22:06:27.596Z,86.49
2023-03-09T22:08:56.867Z,86.80
2023-03-09T22:11:25.466Z,86.99
2023-03-09T22:13:52.502Z,86.83
2023-03-09T22:16:27.585Z,87.61
2023-03-09T22:18:56.332Z,85.74
2023-03-09T22:21:24.459Z,86.02
2023-03-09T22:23:51.530Z,87.18
2023-03-09T22:26:19.404Z,85.66
2023-03-09T22:28:46.733Z,84.14
2023-03-09T22:31:16.334Z,87.56
2023-03-09T22:33:44.691Z,85.43
2023-03-09T22:36:18.368Z,82.32
2023-03-09T22:38:45.889Z,81.67
2023-03-09T22:41:16.877Z,81.37
2023-03-09T22:43:46.330Z,84.27
2023-03-09T22:46:17.541Z,81.80
2023-03-09T22:48:45.123Z,80.64
2023-03-09T22:51:16.310Z,80.96
2023-03-09T22:53:45.470Z,81.30
2023-03-09T22:56:13.170Z,80.83
2023-03-09T22:58:40.786Z,80.37
2023-03-09T23:01:25.944Z,81.42
2023-03-09T23:03:55.046Z,80.31
2023-03-09T23:06:23.424Z,81.06
2023-03-09T23:08:50.780Z,80.29
2023-03-09T23:11:33.850Z,80.54
2023-03-09T23:14:00.878Z,78.98
2023-03-09T23:16:27.803Z,79.69
2023-03-09T23:18:54.669Z,79.89
2023-03-09T23:21:22.615Z,81.22
2023-03-09T23:23:52.079Z,79.93
2023-03-09T23:26:21.707Z,81.09
2023-03-09T23:28:49.412Z,79.64
2023-03-09T23:31:16.703Z,79.99
2023-03-09T23:33:44.093Z,79.95
2023-03-09T23:36:12.441Z,80.80
2023-03-09T23:38:39.430Z,80.31
2023-03-09T23:41:11.375Z,80.08
2023-03-09T23:43:39.023Z,78.42
2023-03-09T23:46:13.317Z,79.35
2023-03-09T23:48:40.522Z,76.97
2023-03-09T23:51:10.704Z,78.96
2023-03-09T23:53:38.400Z,78.39
2023-03-09T23:56:12.042Z,79.69
2023-03-09T23:58:45.380Z,77.03
